createdAt,value
2023-02-14T00:04:52.884Z,34.53
2023-02-14T00:09:57.567Z,35.38
2023-02-14T00:15:18.143Z,35.88
2023-02-14T00:20:21.747Z,33.63
2023-02-14T00:25:26.373Z,33.80
2023-02-14T00:30:30.060Z,34.22
2023-02-14T00:35:33.418Z,29.73
2023-02-14T00:40:38.072Z,34.53
2023-02-14T00:45:41.345Z,34.33
2023-02-14T00:50:46.280Z,33.30
2023-02-14T00:55:50.904Z,30.47
2023-02-14T01:00:54.435Z,33.08
2023-02-14T01:05:57.789Z,35.97
2023-02-14T01:11:10.005Z,33.78
2023-02-14T01:16:19.937Z,29.85
2023-02-14T01:21:26.675Z,30.15
2023-02-14T01:26:34.465Z,36.13
2023-02-14T01:31:38.880Z,34.35
2023-02-14T01:36:42.331Z,29.42
2023-02-14T01:41:48.605Z,29.63
2023-02-14T01:46:52.822Z,28.40
2023-02-14T01:52:03.687Z,35.73
2023-02-14T01:57:13.471Z,32.83
2023-02-14T02:02:23.533Z,29.63
2023-02-14T02:07:28.571Z,28.95
2023-02-14T02:12:38.171Z,29.60
2023-02-14T02:17:50.031Z,27.77
2023-02-14T02:23:26.819Z,26.05
2023-02-14T02:28:58.284Z,24.42
2023-02-14T02:34:25.505Z,24.48
2023-02-14T02:39:43.780Z,21.95
2023-02-14T02:44:57.035Z,23.02
2023-02-14T02:50:24.376Z,21.90
2023-02-14T02:55:55.950Z,23.35
2023-02-14T03:01:04.119Z,22.25
2023-02-14T03:06:07.991Z,22.05
2023-02-14T03:11:14.883Z,21.75
2023-02-14T03:16:38.309Z,25.95
2023-02-14T03:21:56.353Z,23.02
2023-02-14T03:27:07.392Z,21.00
2023-02-14T03:32:20.043Z,20.55
2023-02-14T03:37:29.536Z,20.23
2023-02-14T03:42:39.093Z,20.63
2023-02-14T03:47:44.278Z,24.87
2023-02-14T03:52:50.166Z,27.03
2023-02-14T03:58:00.663Z,36.33
2023-02-14T04:03:11.957Z,27.77
2023-02-14T04:08:22.917Z,21.40
2023-02-14T04:13:27.842Z,19.17
2023-02-14T04:18:48.465Z,18.67
2023-02-14T04:23:51.799Z,20.33
2023-02-14T04:28:56.670Z,20.15
2023-02-14T04:33:59.967Z,21.35
2023-02-14T04:39:03.372Z,19.13
2023-02-14T04:44:08.168Z,19.07
2023-02-14T04:49:11.545Z,17.83
2023-02-14T04:54:14.929Z,18.57
2023-02-14T04:59:19.831Z,23.92
2023-02-14T05:04:23.282Z,22.30
2023-02-14T05:09:26.626Z,20.05
2023-02-14T05:14:31.416Z,22.08
2023-02-14T05:19:34.707Z,20.73
2023-02-14T05:24:38.190Z,20.92
2023-02-14T05:29:42.918Z,21.17
2023-02-14T05:34:46.313Z,18.77
2023-02-14T05:39:49.592Z,20.92
2023-02-14T05:44:54.513Z,19.63
2023-02-14T05:49:57.837Z,19.45
2023-02-14T05:55:01.155Z,18.30
2023-02-14T06:00:06.969Z,20.90
2023-02-14T06:05:17.889Z,22.38
2023-02-14T06:10:23.860Z,19.97
2023-02-14T06:15:29.032Z,21.77
2023-02-14T06:20:32.870Z,20.63
2023-02-14T06:25:36.310Z,20.70
2023-02-14T06:30:41.188Z,20.27
2023-02-14T06:35:44.596Z,23.70
2023-02-14T06:40:47.923Z,22.70
2023-02-14T06:45:52.700Z,22.33
2023-02-14T06:50:56.044Z,21.63
2023-02-14T06:55:59.372Z,21.50
2023-02-14T07:01:04.545Z,19.95
2023-02-14T07:06:07.982Z,22.17
2023-02-14T07:11:11.411Z,21.00
2023-02-14T07:16:16.248Z,22.57
2023-02-14T07:21:19.603Z,22.65
2023-02-14T07:26:22.964Z,23.80
2023-02-14T07:31:27.885Z,26.45
2023-02-14T07:36:32.223Z,28.43
2023-02-14T07:41:35.639Z,27.77
2023-02-14T07:46:44.044Z,29.50
2023-02-14T07:51:47.332Z,29.83
2023-02-14T07:56:51.174Z,31.73
2023-02-14T08:01:55.977Z,29.52
2023-02-14T08:06:59.476Z,31.17
2023-02-14T08:12:20.304Z,31.08
2023-02-14T08:17:24.976Z,32.97
2023-02-14T08:22:28.263Z,32.13
2023-02-14T08:27:31.569Z,37.40
2023-02-14T08:32:37.436Z,37.22
2023-02-14T08:37:40.846Z,36.23
2023-02-14T08:42:44.126Z,27.80
2023-02-14T08:47:48.854Z,34.27
2023-02-14T08:52:52.120Z,26.30
2023-02-14T08:57:56.762Z,29.20
2023-02-14T09:03:01.726Z,24.10
2023-02-14T09:08:05.421Z,28.70
2023-02-14T09:13:08.729Z,29.00
2023-02-14T09:18:13.569Z,24.03
2023-02-14T09:23:16.999Z,24.83
2023-02-14T09:28:20.416Z,19.83
2023-02-14T09:33:25.515Z,23.30
2023-02-14T09:38:28.804Z,13.60
2023-02-14T09:43:38.166Z,20.03
2023-02-14T09:48:47.220Z,16.73
2023-02-14T09:53:54.152Z,18.37
2023-02-14T09:59:05.007Z,9.57
2023-02-14T10:04:25.565Z,13.60
2023-02-14T10:09:55.616Z,15.43
2023-02-14T10:15:02.657Z,9.63
2023-02-14T10:20:19.465Z,13.83
2023-02-14T10:25:25.901Z,13.93
2023-02-14T10:30:38.155Z,12.27
2023-02-14T10:35:48.462Z,11.83
2023-02-14T10:41:15.221Z,14.27
2023-02-14T10:46:31.376Z,13.73
2023-02-14T10:51:42.540Z,16.23
2023-02-14T10:56:51.587Z,18.17
2023-02-14T11:01:56.253Z,16.53
2023-02-14T11:07:00.915Z,14.10
2023-02-14T11:12:04.496Z,12.70
2023-02-14T11:17:32.857Z,10.13
2023-02-14T11:22:37.583Z,16.17
2023-02-14T11:27:49.856Z,15.40
2023-02-14T11:32:56.147Z,11.60
2023-02-14T11:38:01.911Z,16.27
2023-02-14T11:43:20.936Z,11.40
2023-02-14T11:48:37.239Z,16.40
2023-02-14T11:53:49.693Z,14.83
2023-02-14T11:58:57.646Z,14.23
2023-02-14T12:04:04.380Z,11.87
2023-02-14T12:09:27.640Z,15.80
2023-02-14T12:14:32.831Z,12.80
2023-02-14T12:19:43.123Z,15.43
2023-02-14T12:24:54.286Z,14.97
2023-02-14T12:30:04.157Z,13.37
2023-02-14T12:35:15.862Z,18.52
2023-02-14T12:40:25.583Z,19.20
2023-02-14T12:45:47.078Z,17.05
2023-02-14T12:50:55.451Z,13.23
2023-02-14T12:56:12.764Z,14.90
2023-02-14T13:01:39.180Z,15.80
2023-02-14T13:06:49.157Z,18.13
2023-02-14T13:12:03.338Z,15.63
2023-02-14T13:17:18.647Z,16.90
2023-02-14T13:22:25.175Z,15.90
2023-02-14T13:27:33.441Z,15.27
2023-02-14T13:32:40.932Z,16.13
2023-02-14T13:37:54.368Z,15.30
2023-02-14T13:43:00.430Z,12.53
2023-02-14T13:48:06.606Z,16.33
2023-02-14T13:53:13.382Z,16.83
2023-02-14T13:58:21.821Z,12.23
2023-02-14T14:04:01.936Z,13.70
2023-02-14T14:09:05.534Z,18.60
2023-02-14T14:14:36.599Z,12.27
2023-02-14T14:19:42.086Z,16.27
2023-02-14T14:24:57.341Z,20.50
2023-02-14T14:30:03.504Z,14.13
2023-02-14T14:35:22.625Z,14.63
2023-02-14T14:40:28.857Z,14.13
2023-02-14T14:45:33.958Z,19.17
2023-02-14T14:50:39.799Z,16.73
2023-02-14T14:55:51.974Z,18.93
2023-02-14T15:00:56.830Z,17.10
2023-02-14T15:06:17.319Z,19.30
2023-02-14T15:11:42.221Z,21.60
2023-02-14T15:16:49.932Z,17.63
2023-02-14T15:21:53.466Z,15.80
2023-02-14T15:26:58.279Z,22.23
2023-02-14T15:32:03.752Z,12.67
2023-02-14T15:37:08.418Z,17.47
2023-02-14T15:42:22.894Z,17.60
2023-02-14T15:47:27.580Z,20.73
2023-02-14T15:52:30.922Z,21.27
2023-02-14T15:57:35.320Z,20.13
2023-02-14T16:02:42.164Z,40.47
2023-02-14T16:07:57.962Z,24.23
2023-02-14T16:13:03.739Z,22.00
2023-02-14T16:18:19.617Z,25.67
2023-02-14T16:23:26.123Z,17.50
2023-02-14T16:28:31.102Z,12.97
2023-02-14T16:33:37.256Z,15.23
2023-02-14T16:38:44.404Z,39.97
2023-02-14T16:43:48.359Z,34.10
2023-02-14T16:48:53.561Z,50.37
2023-02-14T16:53:58.987Z,24.23
2023-02-14T16:59:02.250Z,9.57
2023-02-14T17:04:06.921Z,23.97
2023-02-14T17:09:13.336Z,19.13
2023-02-14T17:14:19.999Z,40.73
2023-02-14T17:19:24.758Z,17.30
2023-02-14T17:24:28.222Z,10.90
2023-02-14T17:29:31.848Z,18.57
2023-02-14T17:34:36.651Z,35.33
2023-02-14T17:39:40.111Z,27.77
2023-02-14T17:44:43.449Z,46.90
2023-02-14T17:49:48.514Z,25.20
2023-02-14T17:54:52.175Z,21.80
2023-02-14T17:59:55.599Z,24.53
2023-02-14T18:05:00.458Z,29.50
2023-02-14T18:10:03.783Z,31.47
2023-02-14T18:15:07.856Z,38.33
2023-02-14T18:20:13.822Z,22.27
2023-02-14T18:25:17.276Z,32.93
2023-02-14T18:30:20.815Z,16.37
2023-02-14T18:35:25.538Z,31.20
2023-02-14T18:40:29.184Z,21.30
2023-02-14T18:45:36.199Z,21.30
2023-02-14T18:50:40.956Z,36.20
2023-02-14T18:55:44.213Z,16.00
2023-02-14T19:00:47.470Z,22.50
2023-02-14T19:05:53.299Z,15.57
2023-02-14T19:10:56.549Z,20.07
2023-02-14T19:16:00.631Z,16.17
2023-02-14T19:21:12.352Z,18.40
2023-02-14T19:26:17.632Z,28.63
2023-02-14T19:31:20.947Z,20.03
2023-02-14T19:36:25.806Z,12.63
2023-02-14T19:41:31.717Z,24.40
2023-02-14T19:46:35.621Z,36.37
2023-02-14T19:51:40.259Z,30.77
2023-02-14T19:56:45.363Z,22.17
2023-02-14T20:01:50.991Z,37.87
2023-02-14T20:06:56.691Z,27.20
2023-02-14T20:12:01.514Z,35.17
2023-02-14T20:17:07.672Z,28.17
2023-02-14T20:22:12.666Z,15.97
2023-02-14T20:27:16.353Z,20.30
2023-02-14T20:32:20.172Z,27.70
2023-02-14T20:37:25.112Z,41.97
2023-02-14T20:42:28.698Z,20.30
2023-02-14T20:47:32.041Z,14.83
2023-02-14T20:52:38.313Z,18.83
2023-02-14T20:57:41.738Z,13.37
2023-02-14T21:02:45.540Z,15.83
2023-02-14T21:07:50.400Z,17.13
2023-02-14T21:12:54.343Z,29.10
2023-02-14T21:17:58.483Z,19.73
2023-02-14T21:23:03.576Z,28.10
2023-02-14T21:28:06.896Z,15.77
2023-02-14T21:33:10.408Z,14.77
2023-02-14T21:38:15.185Z,9.97
2023-02-14T21:43:18.483Z,12.67
2023-02-14T21:48:39.412Z,8.80
2023-02-14T21:53:44.300Z,18.33
2023-02-14T21:58:48.740Z,24.60
2023-02-14T22:03:52.746Z,11.00
2023-02-14T22:09:01.201Z,13.43
2023-02-14T22:14:04.654Z,9.30
2023-02-14T22:19:09.151Z,21.67
2023-02-14T22:24:13.956Z,16.20
2023-02-14T22:29:17.453Z,15.37
2023-02-14T22:34:20.717Z,12.23
2023-02-14T22:39:25.548Z,19.17
2023-02-14T22:44:29.093Z,25.13
2023-02-14T22:49:32.543Z,11.97
2023-02-14T22:54:37.210Z,10.53
2023-02-14T22:59:40.734Z,30.40
2023-02-14T23:04:44.032Z,15.20
2023-02-14T23:09:50.578Z,22.47
2023-02-14T23:15:11.241Z,14.53
2023-02-14T23:20:31.932Z,27.33
2023-02-14T23:25:36.556Z,29.33
2023-02-14T23:30:39.885Z,29.37
2023-02-14T23:35:43.214Z,37.17
2023-02-14T23:41:04.351Z,46.77
2023-02-14T23:46:07.686Z,37.87
2023-02-14T23:51:10.943Z,15.20
2023-02-14T23:56:15.650Z,18.00
